Time;durP1;ratioP1;P1;durP2;ratioP2;P2;SDS_P1;SDS_P2;PMS_P1;PMS_P2;Temp;Humidity;BMP_temperature;BMP_pressure;BME280_temperature;BME280_humidity;BME280_pressure;Samples;Min_cycle;Max_cycle;Signal;HPM_P1;HPM_P2
2023/07/20 00:01:56;;;;;;;5.00;2.60;;;;;;;;;;108297;1257;39961;-37
2023/07/20 00:04:33;;;;;;;5.00;2.50;;;;;;;;;;108229;1269;47853;-37
2023/07/20 00:07:09;;;;;;;5.20;2.90;;;;;;;;;;108314;1265;41348;-37
2023/07/20 00:09:43;;;;;;;4.60;2.60;;;;;;;;;;108302;1268;40236;-37
2023/07/20 00:12:18;;;;;;;4.30;2.60;;;;;;;;;;108264;1262;42623;-37
2023/07/20 00:14:53;;;;;;;4.60;2.60;;;;;;;;;;108248;1262;47802;-38
2023/07/20 00:17:27;;;;;;;5.90;2.80;;;;;;;;;;108341;1270;42459;-37
2023/07/20 00:20:05;;;;;;;5.10;2.70;;;;;;;;;;108374;1273;40209;-37
2023/07/20 00:22:41;;;;;;;5.20;2.70;;;;;;;;;;108334;1264;40028;-37
2023/07/20 00:25:16;;;;;;;5.20;2.80;;;;;;;;;;108292;1273;42099;-36
2023/07/20 00:27:50;;;;;;;4.60;2.60;;;;;;;;;;108296;1262;42516;-36
2023/07/20 00:30:24;;;;;;;5.20;2.70;;;;;;;;;;108285;1262;40143;-36
2023/07/20 00:32:58;;;;;;;4.70;2.60;;;;;;;;;;108238;1267;40433;-38
2023/07/20 00:35:35;;;;;;;5.10;2.90;;;;;;;;;;108342;1269;49335;-37
2023/07/20 00:38:10;;;;;;;4.70;2.40;;;;;;;;;;108315;1261;41069;-38
2023/07/20 00:40:44;;;;;;;4.50;2.70;;;;;;;;;;108322;1270;39031;-38
2023/07/20 00:43:19;;;;;;;4.30;2.50;;;;;;;;;;108284;1269;40591;-38
2023/07/20 00:45:53;;;;;;;4.80;2.80;;;;;;;;;;108269;1272;48239;-37
2023/07/20 00:48:28;;;;;;;5.70;2.80;;;;;;;;;;108294;1272;41622;-37
2023/07/20 00:51:03;;;;;;;4.60;2.80;;;;;;;;;;108250;1265;39599;-37
2023/07/20 00:53:37;;;;;;;4.60;2.80;;;;;;;;;;108195;1273;42472;-37
2023/07/20 00:56:11;;;;;;;4.40;2.70;;;;;;;;;;108284;1261;49748;-36
2023/07/20 00:58:45;;;;;;;5.10;2.70;;;;;;;;;;108306;1257;41346;-37
2023/07/20 01:01:20;;;;;;;4.90;2.70;;;;;;;;;;108266;1273;39219;-37
2023/07/20 01:03:54;;;;;;;4.90;2.70;;;;;;;;;;108230;1262;40012;-37
2023/07/20 01:06:40;;;;;;;4.80;2.80;;;;;;;;;;108314;1272;48692;-37
2023/07/20 01:09:21;;;;;;;5.40;2.90;;;;;;;;;;108345;1272;40968;-36
2023/07/20 01:12:04;;;;;;;5.00;2.60;;;;;;;;;;108303;1271;38889;-36
2023/07/20 01:14:39;;;;;;;5.00;2.80;;;;;;;;;;108317;1257;41503;-36
2023/07/20 01:17:13;;;;;;;4.50;2.80;;;;;;;;;;108305;1264;43588;-38
2023/07/20 01:19:47;;;;;;;5.00;2.80;;;;;;;;;;108234;1262;42491;-38
2023/07/20 01:22:46;;;;;;;4.60;2.80;;;;;;;;;;108142;1270;175427;-38
2023/07/20 01:25:53;;;;;;;4.90;2.90;;;;;;;;;;108224;1261;41516;-38
2023/07/20 01:28:59;;;;;;;4.50;2.50;;;;;;;;;;108344;1271;42142;-37
2023/07/20 01:31:36;;;;;;;4.90;2.90;;;;;;;;;;108324;1263;42677;-37
2023/07/20 01:34:14;;;;;;;4.50;2.80;;;;;;;;;;108314;1263;41330;-37
2023/07/20 01:36:51;;;;;;;5.20;3.00;;;;;;;;;;108180;1260;40290;-37
2023/07/20 01:39:26;;;;;;;4.90;2.70;;;;;;;;;;108267;1267;42381;-37
2023/07/20 01:42:00;;;;;;;4.70;2.80;;;;;;;;;;108239;1272;41223;-37
2023/07/20 01:44:34;;;;;;;4.50;2.80;;;;;;;;;;108239;1267;39859;-38
2023/07/20 01:47:09;;;;;;;4.80;2.90;;;;;;;;;;108283;1270;45767;-37
2023/07/20 01:49:43;;;;;;;6.40;2.80;;;;;;;;;;108300;1269;43346;-37
2023/07/20 01:52:17;;;;;;;5.20;2.80;;;;;;;;;;108261;1273;42376;-37
2023/07/20 01:54:51;;;;;;;4.70;2.70;;;;;;;;;;108291;1272;38969;-37
2023/07/20 01:57:25;;;;;;;5.40;3.20;;;;;;;;;;108220;1257;45169;-37
2023/07/20 01:59:58;;;;;;;5.40;3.20;;;;;;;;;;108301;1271;42721;-37
2023/07/20 02:02:32;;;;;;;4.70;3.00;;;;;;;;;;108233;1260;43587;-38
2023/07/20 02:05:09;;;;;;;4.90;2.90;;;;;;;;;;108279;1257;40020;-38
2023/07/20 02:07:43;;;;;;;4.80;3.00;;;;;;;;;;108396;1260;47499;-38
2023/07/20 02:10:20;;;;;;;4.80;3.00;;;;;;;;;;108318;1263;42427;-37
2023/07/20 02:12:55;;;;;;;5.10;2.90;;;;;;;;;;108286;1272;41525;-38
2023/07/20 02:15:29;;;;;;;6.20;3.10;;;;;;;;;;108307;1260;38641;-37
2023/07/20 02:18:03;;;;;;;4.30;2.80;;;;;;;;;;108183;1262;45296;-37
2023/07/20 02:20:37;;;;;;;4.80;2.90;;;;;;;;;;108253;1270;42296;-37
2023/07/20 02:23:12;;;;;;;4.80;3.20;;;;;;;;;;108261;1268;41127;-37
2023/07/20 02:25:46;;;;;;;4.90;3.10;;;;;;;;;;108245;1267;38893;-37
2023/07/20 02:28:20;;;;;;;4.80;3.10;;;;;;;;;;108438;1261;46816;-38
2023/07/20 02:30:54;;;;;;;5.10;3.00;;;;;;;;;;108304;1260;42331;-37
2023/07/20 02:33:28;;;;;;;5.90;3.30;;;;;;;;;;108366;1270;41296;-36
2023/07/20 02:36:02;;;;;;;4.90;3.30;;;;;;;;;;108393;1270;39308;-37
2023/07/20 02:38:36;;;;;;;4.90;3.00;;;;;;;;;;108393;1256;45652;-37
2023/07/20 02:41:10;;;;;;;5.50;3.10;;;;;;;;;;108288;1272;42359;-37
2023/07/20 02:43:44;;;;;;;4.50;3.00;;;;;;;;;;108309;1260;42544;-37
2023/07/20 02:46:18;;;;;;;4.70;3.00;;;;;;;;;;108271;1261;38986;-37
2023/07/20 02:48:53;;;;;;;4.80;2.90;;;;;;;;;;108261;1260;47994;-37
2023/07/20 02:51:27;;;;;;;5.00;3.20;;;;;;;;;;108282;1273;43246;-37
2023/07/20 02:54:01;;;;;;;5.10;2.90;;;;;;;;;;108308;1273;41317;-37
2023/07/20 02:56:35;;;;;;;4.60;2.80;;;;;;;;;;108283;1257;38934;-37
2023/07/20 02:59:10;;;;;;;5.00;2.90;;;;;;;;;;108365;1271;45756;-37
2023/07/20 03:01:44;;;;;;;4.70;3.00;;;;;;;;;;108346;1257;42082;-37
2023/07/20 03:04:18;;;;;;;4.80;3.00;;;;;;;;;;108346;1270;42214;-37
2023/07/20 03:06:52;;;;;;;4.70;2.60;;;;;;;;;;108367;1257;38812;-37
2023/07/20 03:09:27;;;;;;;4.90;3.00;;;;;;;;;;108240;1261;47216;-37
2023/07/20 03:12:01;;;;;;;5.60;2.90;;;;;;;;;;107643;1260;892324;-37
2023/07/20 03:14:34;;;;;;;4.50;2.80;;;;;;;;;;108196;1260;41127;-37
2023/07/20 03:17:10;;;;;;;5.00;3.00;;;;;;;;;;108245;1273;41281;-37
2023/07/20 03:19:44;;;;;;;4.50;2.70;;;;;;;;;;108376;1260;47193;-37
2023/07/20 03:22:18;;;;;;;4.70;2.80;;;;;;;;;;108311;1272;43365;-37
2023/07/20 03:24:52;;;;;;;4.90;2.90;;;;;;;;;;108307;1257;42525;-37
2023/07/20 03:27:26;;;;;;;4.90;2.70;;;;;;;;;;108202;1270;175455;-36
2023/07/20 03:30:01;;;;;;;4.50;2.90;;;;;;;;;;108202;1260;45709;-38
2023/07/20 03:32:36;;;;;;;5.10;2.90;;;;;;;;;;108196;1272;42280;-37
2023/07/20 03:35:12;;;;;;;4.90;2.60;;;;;;;;;;108247;1265;42628;-38
2023/07/20 03:37:46;;;;;;;4.50;2.80;;;;;;;;;;108267;1257;40115;-36
2023/07/20 03:40:20;;;;;;;4.80;2.90;;;;;;;;;;108261;1261;45548;-37
2023/07/20 03:42:56;;;;;;;4.70;3.00;;;;;;;;;;108319;1269;43426;-38
2023/07/20 03:45:33;;;;;;;4.80;2.80;;;;;;;;;;108318;1272;41017;-37
2023/07/20 03:48:07;;;;;;;4.80;3.00;;;;;;;;;;108353;1270;38907;-37
2023/07/20 03:50:42;;;;;;;4.40;2.90;;;;;;;;;;108052;1259;41570;-37
2023/07/20 03:53:16;;;;;;;4.90;2.70;;;;;;;;;;108241;1257;42073;-36
2023/07/20 03:55:51;;;;;;;4.70;2.70;;;;;;;;;;108284;1270;41335;-37
2023/07/20 03:58:25;;;;;;;4.40;2.70;;;;;;;;;;108205;1266;38756;-37
2023/07/20 04:01:04;;;;;;;4.60;2.70;;;;;;;;;;108330;1260;46482;-37
2023/07/20 04:03:39;;;;;;;5.10;3.00;;;;;;;;;;108313;1269;42156;-37
2023/07/20 04:06:14;;;;;;;4.50;2.90;;;;;;;;;;108311;1257;42341;-38
2023/07/20 04:08:48;;;;;;;5.00;3.00;;;;;;;;;;108271;1262;38880;-37
2023/07/20 04:11:23;;;;;;;4.70;2.60;;;;;;;;;;108227;1261;42437;-37
2023/07/20 04:14:17;;;;;;;4.80;2.70;;;;;;;;;;108237;1258;42146;-37
2023/07/20 04:16:52;;;;;;;5.00;2.80;;;;;;;;;;108252;1272;41381;-36
2023/07/20 04:19:26;;;;;;;4.40;2.80;;;;;;;;;;108223;1257;40121;-36
2023/07/20 04:22:00;;;;;;;4.60;2.70;;;;;;;;;;108302;1257;40371;-36
2023/07/20 04:24:34;;;;;;;4.60;2.90;;;;;;;;;;108279;1266;43629;-37
2023/07/20 04:27:10;;;;;;;5.40;2.90;;;;;;;;;;108335;1269;41141;-38
2023/07/20 04:29:47;;;;;;;4.80;2.90;;;;;;;;;;108274;1272;38627;-37
2023/07/20 04:32:22;;;;;;;4.90;2.90;;;;;;;;;;107558;1272;910933;-38
2023/07/20 04:34:57;;;;;;;6.10;3.00;;;;;;;;;;108206;1261;42052;-37
2023/07/20 04:37:31;;;;;;;5.40;3.30;;;;;;;;;;108227;1272;42289;-37
2023/07/20 04:40:08;;;;;;;4.90;3.20;;;;;;;;;;108229;1257;39147;-37
2023/07/20 04:42:43;;;;;;;5.40;3.10;;;;;;;;;;108345;1269;40203;-37
2023/07/20 04:45:20;;;;;;;5.40;3.10;;;;;;;;;;108299;1260;42781;-37
2023/07/20 04:47:55;;;;;;;5.00;3.00;;;;;;;;;;108310;1269;42431;-37
2023/07/20 04:50:30;;;;;;;5.30;3.40;;;;;;;;;;108236;1257;40116;-37
2023/07/20 04:53:05;;;;;;;5.70;3.60;;;;;;;;;;108227;1257;40162;-37
2023/07/20 04:55:40;;;;;;;5.40;3.10;;;;;;;;;;108245;1258;42002;-37
2023/07/20 04:58:14;;;;;;;5.30;3.10;;;;;;;;;;108246;1257;41071;-37
2023/07/20 05:00:49;;;;;;;5.20;3.00;;;;;;;;;;108250;1269;38818;-37
2023/07/20 05:03:23;;;;;;;4.40;2.80;;;;;;;;;;108331;1269;41557;-37
2023/07/20 05:06:00;;;;;;;5.40;3.00;;;;;;;;;;108292;1261;42072;-37
2023/07/20 05:08:34;;;;;;;4.40;2.90;;;;;;;;;;108316;1258;41354;-37
2023/07/20 05:11:11;;;;;;;5.30;3.20;;;;;;;;;;108198;1260;38637;-37
2023/07/20 05:13:46;;;;;;;4.80;3.00;;;;;;;;;;108216;1260;40605;-36
2023/07/20 05:16:20;;;;;;;5.00;3.30;;;;;;;;;;108194;1272;42333;-38
2023/07/20 05:18:56;;;;;;;5.80;3.10;;;;;;;;;;108218;1270;41791;-39
2023/07/20 05:21:30;;;;;;;5.10;3.30;;;;;;;;;;108242;1257;40089;-38
2023/07/20 05:24:04;;;;;;;4.90;3.10;;;;;;;;;;108312;1257;40422;-38
2023/07/20 05:26:38;;;;;;;6.00;3.20;;;;;;;;;;108321;1257;42060;-38
2023/07/20 05:29:12;;;;;;;5.10;3.00;;;;;;;;;;108290;1273;42436;-37
2023/07/20 05:31:45;;;;;;;5.20;3.00;;;;;;;;;;108212;1268;38874;-38
2023/07/20 05:34:21;;;;;;;5.20;3.10;;;;;;;;;;108223;1269;40194;-38
2023/07/20 05:36:55;;;;;;;5.10;2.90;;;;;;;;;;108194;1258;43781;-38
2023/07/20 05:39:29;;;;;;;5.60;2.90;;;;;;;;;;108190;1267;41282;-38
2023/07/20 05:42:03;;;;;;;4.90;2.60;;;;;;;;;;108237;1260;38839;-39
2023/07/20 05:44:37;;;;;;;5.60;3.00;;;;;;;;;;108318;1272;40440;-38
2023/07/20 05:47:14;;;;;;;4.80;3.10;;;;;;;;;;108304;1260;42047;-38
2023/07/20 05:49:48;;;;;;;5.20;3.20;;;;;;;;;;108311;1269;41026;-38
2023/07/20 05:52:22;;;;;;;5.90;3.40;;;;;;;;;;108210;1260;40031;-38
2023/07/20 05:54:56;;;;;;;6.30;3.80;;;;;;;;;;108213;1272;40441;-38
2023/07/20 05:57:30;;;;;;;6.00;3.60;;;;;;;;;;108268;1260;42282;-38
2023/07/20 06:00:06;;;;;;;5.60;3.40;;;;;;;;;;108238;1257;44203;-38
2023/07/20 06:02:40;;;;;;;5.50;3.40;;;;;;;;;;108250;1260;39043;-38
2023/07/20 06:05:15;;;;;;;6.20;3.50;;;;;;;;;;108357;1257;40270;-38
2023/07/20 06:07:49;;;;;;;5.00;3.00;;;;;;;;;;108321;1270;42082;-38
2023/07/20 06:10:22;;;;;;;5.60;3.50;;;;;;;;;;108321;1260;41275;-38
2023/07/20 06:12:56;;;;;;;6.20;3.60;;;;;;;;;;108182;1260;38750;-37
2023/07/20 06:15:32;;;;;;;5.60;3.20;;;;;;;;;;108231;1261;40746;-37
2023/07/20 06:18:05;;;;;;;5.40;3.20;;;;;;;;;;108222;1260;43591;-38
2023/07/20 06:20:39;;;;;;;5.40;2.90;;;;;;;;;;108195;1265;41696;-37
2023/07/20 06:23:13;;;;;;;5.20;3.10;;;;;;;;;;108212;1257;38886;-36
2023/07/20 06:25:48;;;;;;;5.50;3.30;;;;;;;;;;108309;1273;40056;-36
2023/07/20 06:28:22;;;;;;;5.60;3.60;;;;;;;;;;108279;1272;43426;-36
2023/07/20 06:31:02;;;;;;;5.20;3.50;;;;;;;;;;108303;1264;42416;-36
2023/07/20 06:33:36;;;;;;;5.50;3.40;;;;;;;;;;108202;1257;40258;-36
2023/07/20 06:36:11;;;;;;;6.80;3.80;;;;;;;;;;108197;1264;40472;-36
2023/07/20 06:38:44;;;;;;;5.80;3.60;;;;;;;;;;108059;1261;175549;-36
2023/07/20 06:41:38;;;;;;;6.20;3.40;;;;;;;;;;108195;1272;42251;-36
2023/07/20 06:44:16;;;;;;;5.10;3.50;;;;;;;;;;108320;1269;45060;-36
2023/07/20 06:46:49;;;;;;;6.00;3.50;;;;;;;;;;108245;1264;39975;-36
2023/07/20 06:49:30;;;;;;;4.90;3.00;;;;;;;;;;108297;1264;43346;-36
2023/07/20 06:52:05;;;;;;;4.60;2.80;;;;;;;;;;108278;1258;41063;-37
2023/07/20 06:54:39;;;;;;;5.70;3.00;;;;;;;;;;108344;1260;40291;-37
2023/07/20 06:57:18;;;;;;;6.10;3.70;;;;;;;;;;108306;1270;40201;-36
2023/07/20 06:59:54;;;;;;;4.80;2.90;;;;;;;;;;108318;1269;42113;-36
2023/07/20 07:02:28;;;;;;;5.70;3.40;;;;;;;;;;108290;1257;42424;-36
2023/07/20 07:05:04;;;;;;;5.80;3.60;;;;;;;;;;108298;1266;39179;-36
2023/07/20 07:07:54;;;;;;;5.00;3.10;;;;;;;;;;108308;1257;40433;-36
2023/07/20 07:10:28;;;;;;;5.50;3.20;;;;;;;;;;108327;1257;42179;-36
2023/07/20 07:13:02;;;;;;;5.00;3.00;;;;;;;;;;108230;1256;41157;-36
2023/07/20 07:15:39;;;;;;;5.50;3.40;;;;;;;;;;108367;1262;39254;-39
2023/07/20 07:18:14;;;;;;;5.80;4.00;;;;;;;;;;108322;1270;40424;-39
2023/07/20 07:20:56;;;;;;;6.20;3.70;;;;;;;;;;108353;1267;42093;-37
2023/07/20 07:23:36;;;;;;;5.30;3.70;;;;;;;;;;108166;1260;41222;-38
2023/07/20 07:26:10;;;;;;;5.80;3.50;;;;;;;;;;108266;1261;39039;-39
2023/07/20 07:28:44;;;;;;;5.20;3.20;;;;;;;;;;108124;1256;193502;-38
2023/07/20 07:31:18;;;;;;;5.90;3.50;;;;;;;;;;108200;1269;43422;-39
2023/07/20 07:33:53;;;;;;;6.40;3.50;;;;;;;;;;108231;1261;41440;-39
2023/07/20 07:36:27;;;;;;;5.30;3.00;;;;;;;;;;108181;1264;38864;-38
2023/07/20 07:39:02;;;;;;;5.70;3.70;;;;;;;;;;108129;1273;40426;-41
2023/07/20 07:41:55;;;;;;;5.20;3.30;;;;;;;;;;108156;1264;43436;-38
2023/07/20 07:44:35;;;;;;;5.10;3.10;;;;;;;;;;108173;1257;41376;-39
2023/07/20 07:47:09;;;;;;;4.80;3.20;;;;;;;;;;108230;1270;38836;-39
2023/07/20 07:49:43;;;;;;;5.40;3.30;;;;;;;;;;108241;1266;40243;-38
2023/07/20 07:52:21;;;;;;;5.20;3.20;;;;;;;;;;108245;1269;43382;-38
2023/07/20 07:54:57;;;;;;;4.50;3.00;;;;;;;;;;108158;1261;43589;-39
2023/07/20 07:57:31;;;;;;;4.80;3.00;;;;;;;;;;108412;1271;38611;-39
2023/07/20 08:00:11;;;;;;;5.60;2.90;;;;;;;;;;108377;1267;41534;-40
2023/07/20 08:02:46;;;;;;;4.00;2.40;;;;;;;;;;108417;1259;42227;-39
2023/07/20 08:05:20;;;;;;;5.40;2.80;;;;;;;;;;108296;1267;41384;-39
2023/07/20 08:07:54;;;;;;;4.30;2.60;;;;;;;;;;108304;1264;40135;-38
2023/07/20 08:10:28;;;;;;;4.50;2.50;;;;;;;;;;108264;1257;41391;-39
2023/07/20 08:13:02;;;;;;;4.00;2.30;;;;;;;;;;108284;1262;43768;-39
2023/07/20 08:15:36;;;;;;;4.20;2.10;;;;;;;;;;108223;1260;42400;-38
2023/07/20 08:18:10;;;;;;;5.20;2.20;;;;;;;;;;107583;1258;893038;-40
2023/07/20 08:20:49;;;;;;;4.70;2.40;;;;;;;;;;108165;1272;39937;-38
2023/07/20 08:23:23;;;;;;;4.10;2.40;;;;;;;;;;108187;1261;43341;-41
2023/07/20 08:25:59;;;;;;;4.30;2.50;;;;;;;;;;108276;1260;42604;-41
2023/07/20 08:28:32;;;;;;;4.60;2.40;;;;;;;;;;108288;1256;39958;-41
2023/07/20 08:31:08;;;;;;;4.60;2.40;;;;;;;;;;108274;1270;40299;-41
2023/07/20 08:33:42;;;;;;;5.30;2.50;;;;;;;;;;108275;1257;42237;-41
2023/07/20 08:36:17;;;;;;;5.30;2.30;;;;;;;;;;108148;1260;47089;-38
2023/07/20 08:38:51;;;;;;;4.10;2.00;;;;;;;;;;108192;1272;38674;-36
2023/07/20 08:41:25;;;;;;;5.10;2.40;;;;;;;;;;108177;1272;39982;-37
2023/07/20 08:43:59;;;;;;;4.50;2.40;;;;;;;;;;108091;1265;177256;-37
2023/07/20 08:46:34;;;;;;;4.90;2.40;;;;;;;;;;108260;1269;175463;-38
2023/07/20 08:49:09;;;;;;;4.20;2.70;;;;;;;;;;108276;1272;38809;-36
2023/07/20 08:51:44;;;;;;;5.40;2.90;;;;;;;;;;108240;1270;40677;-36
2023/07/20 08:54:21;;;;;;;4.90;2.90;;;;;;;;;;108083;1262;42342;-35
2023/07/20 08:57:01;;;;;;;4.50;2.70;;;;;;;;;;108233;1260;47272;-35
2023/07/20 08:59:39;;;;;;;4.80;2.40;;;;;;;;;;108229;1256;39061;-37
2023/07/20 09:02:19;;;;;;;5.40;2.50;;;;;;;;;;108191;1257;40276;-36
2023/07/20 09:04:53;;;;;;;4.20;2.20;;;;;;;;;;108175;1256;42311;-36
2023/07/20 09:07:28;;;;;;;4.70;2.40;;;;;;;;;;108283;1269;41343;-34
2023/07/20 09:10:05;;;;;;;4.60;2.50;;;;;;;;;;108206;1262;175444;-37
2023/07/20 09:12:42;;;;;;;4.50;2.20;;;;;;;;;;108284;1268;40494;-37
2023/07/20 09:15:17;;;;;;;4.60;2.20;;;;;;;;;;108225;1257;43460;-36
2023/07/20 09:17:54;;;;;;;4.10;2.40;;;;;;;;;;108078;1272;175466;-34
2023/07/20 09:20:28;;;;;;;4.50;2.20;;;;;;;;;;108208;1264;38772;-32
2023/07/20 09:23:02;;;;;;;5.60;2.10;;;;;;;;;;108238;1260;40422;-34
2023/07/20 09:25:39;;;;;;;4.00;2.30;;;;;;;;;;108212;1257;42322;-37
2023/07/20 09:28:13;;;;;;;4.10;2.10;;;;;;;;;;107630;1260;911157;-34
2023/07/20 09:30:47;;;;;;;4.90;2.10;;;;;;;;;;108313;1270;38837;-37
2023/07/20 09:33:26;;;;;;;3.90;2.10;;;;;;;;;;108278;1271;40233;-36
2023/07/20 09:36:07;;;;;;;3.90;2.20;;;;;;;;;;108226;1256;42230;-36
2023/07/20 09:39:03;;;;;;;4.40;2.20;;;;;;;;;;108223;1268;41580;-34
2023/07/20 09:41:45;;;;;;;4.20;2.20;;;;;;;;;;108239;1256;40544;-34
2023/07/20 09:44:18;;;;;;;;;;;;;;;;;;108216;1262;41700;-34
2023/07/20 09:46:55;;;;;;;4.40;1.90;;;;;;;;;;108217;1257;43489;-34
2023/07/20 09:49:32;;;;;;;4.70;2.10;;;;;;;;;;108233;1268;42504;-34
2023/07/20 09:52:27;;;;;;;4.00;1.90;;;;;;;;;;108233;1268;39452;-34
2023/07/20 09:55:05;;;;;;;4.10;2.00;;;;;;;;;;108248;1262;40609;-34
2023/07/20 09:57:39;;;;;;;4.10;2.20;;;;;;;;;;108176;1261;42550;-34
2023/07/20 10:00:16;;;;;;;3.90;2.00;;;;;;;;;;108091;1261;175514;-34
2023/07/20 10:02:54;;;;;;;4.00;2.10;;;;;;;;;;108191;1261;39028;-35
2023/07/20 10:05:30;;;;;;;4.80;2.20;;;;;;;;;;108247;1268;40387;-36
2023/07/20 10:08:06;;;;;;;4.60;1.90;;;;;;;;;;108192;1260;41937;-35
2023/07/20 10:10:45;;;;;;;4.20;2.00;;;;;;;;;;108253;1269;42488;-36
2023/07/20 10:13:26;;;;;;;4.70;2.30;;;;;;;;;;108283;1260;39748;-36
2023/07/20 10:16:05;;;;;;;3.80;1.80;;;;;;;;;;108278;1257;40009;-35
2023/07/20 10:18:51;;;;;;;4.00;2.00;;;;;;;;;;108176;1269;48322;-36
2023/07/20 10:21:26;;;;;;;4.10;2.10;;;;;;;;;;108174;1272;42711;-36
2023/07/20 10:24:04;;;;;;;4.20;2.00;;;;;;;;;;108074;1260;39057;-36
2023/07/20 10:26:38;;;;;;;4.60;2.20;;;;;;;;;;108208;1256;41766;-36
2023/07/20 10:29:17;;;;;;;3.70;1.90;;;;;;;;;;108242;1262;44569;-37
2023/07/20 10:31:50;;;;;;;4.40;1.90;;;;;;;;;;108294;1257;44273;-36
2023/07/20 10:34:28;;;;;;;8.30;4.10;;;;;;;;;;108224;1260;41185;-36
2023/07/20 10:37:03;;;;;;;7.00;3.20;;;;;;;;;;108237;1256;40373;-35
2023/07/20 10:39:36;;;;;;;4.20;2.20;;;;;;;;;;108143;1266;43296;-36
2023/07/20 10:42:13;;;;;;;4.50;2.10;;;;;;;;;;108209;1272;41373;-35
2023/07/20 10:44:48;;;;;;;4.00;2.00;;;;;;;;;;108196;1268;38882;-35
2023/07/20 10:47:22;;;;;;;3.70;1.80;;;;;;;;;;108189;1257;40500;-36
2023/07/20 10:50:06;;;;;;;4.40;2.20;;;;;;;;;;108244;1269;42014;-36
2023/07/20 10:52:44;;;;;;;4.10;2.30;;;;;;;;;;108301;1271;41143;-36
2023/07/20 10:55:21;;;;;;;3.70;2.10;;;;;;;;;;108262;1268;40126;-36
2023/07/20 10:58:14;;;;;;;3.90;1.70;;;;;;;;;;108217;1260;40150;-35
2023/07/20 11:01:06;;;;;;;3.30;1.70;;;;;;;;;;108206;1260;42247;-35
2023/07/20 11:03:40;;;;;;;;;;;;;;;;;;108198;1261;43711;-34
2023/07/20 11:06:38;;;;;;;3.90;1.80;;;;;;;;;;108277;1268;38893;-35
2023/07/20 11:09:14;;;;;;;3.80;1.80;;;;;;;;;;108206;1260;40539;-35
2023/07/20 11:11:49;;;;;;;4.00;1.80;;;;;;;;;;108263;1272;43552;-36
2023/07/20 11:14:28;;;;;;;4.20;2.10;;;;;;;;;;108293;1268;41249;-36
2023/07/20 11:17:17;;;;;;;3.80;1.90;;;;;;;;;;108193;1257;175287;-36
2023/07/20 11:19:58;;;;;;;3.60;1.90;;;;;;;;;;108198;1260;46910;-36
2023/07/20 11:22:36;;;;;;;3.20;1.90;;;;;;;;;;108169;1268;42103;-35
2023/07/20 11:25:14;;;;;;;3.50;1.80;;;;;;;;;;108238;1272;43028;-35
2023/07/20 11:27:49;;;;;;;3.40;1.70;;;;;;;;;;108164;1269;40256;-35
2023/07/20 11:30:23;;;;;;;3.70;1.80;;;;;;;;;;108307;1256;47991;-34
2023/07/20 11:32:57;;;;;;;3.20;1.70;;;;;;;;;;108234;1272;42198;-34
2023/07/20 11:35:31;;;;;;;3.60;1.70;;;;;;;;;;108308;1260;41063;-34
2023/07/20 11:38:07;;;;;;;4.10;1.80;;;;;;;;;;108231;1261;40161;-37
2023/07/20 11:40:45;;;;;;;3.40;1.70;;;;;;;;;;108218;1269;45954;-36
2023/07/20 11:43:20;;;;;;;3.50;2.00;;;;;;;;;;108234;1268;42331;-35
2023/07/20 11:45:54;;;;;;;3.30;1.80;;;;;;;;;;108256;1260;40130;-35
2023/07/20 11:48:28;;;;;;;3.70;1.80;;;;;;;;;;108105;1256;131699;-35
2023/07/20 11:51:01;;;;;;;3.20;1.70;;;;;;;;;;108272;1262;41749;-35
2023/07/20 11:53:35;;;;;;;4.30;1.80;;;;;;;;;;108271;1269;42110;-35
2023/07/20 11:56:09;;;;;;;3.20;1.70;;;;;;;;;;108150;1269;175440;-34
2023/07/20 11:58:47;;;;;;;3.40;1.80;;;;;;;;;;108215;1257;38857;-35
2023/07/20 12:01:21;;;;;;;3.50;1.60;;;;;;;;;;108239;1261;40144;-35
2023/07/20 12:03:55;;;;;;;3.10;1.60;;;;;;;;;;108207;1270;42191;-35
2023/07/20 12:06:32;;;;;;;3.30;1.70;;;;;;;;;;108212;1268;41316;-35
2023/07/20 12:09:06;;;;;;;3.00;1.70;;;;;;;;;;108100;1256;39699;-35
2023/07/20 12:11:43;;;;;;;3.50;1.90;;;;;;;;;;108241;1263;41697;-35
2023/07/20 12:14:17;;;;;;;3.50;1.90;;;;;;;;;;108249;1257;43614;-35
2023/07/20 12:16:56;;;;;;;3.30;1.70;;;;;;;;;;108249;1261;41199;-34
2023/07/20 12:19:33;;;;;;;3.50;1.80;;;;;;;;;;108202;1264;38995;-35
2023/07/20 12:22:08;;;;;;;3.90;1.80;;;;;;;;;;108247;1272;41446;-35
2023/07/20 12:24:42;;;;;;;3.20;1.90;;;;;;;;;;108273;1268;42179;-35
2023/07/20 12:27:19;;;;;;;3.50;1.80;;;;;;;;;;108228;1270;41263;-35
2023/07/20 12:29:54;;;;;;;3.10;1.70;;;;;;;;;;108236;1256;39021;-35
2023/07/20 12:32:28;;;;;;;3.50;1.80;;;;;;;;;;108304;1269;41379;-35
2023/07/20 12:35:02;;;;;;;3.30;1.70;;;;;;;;;;108286;1264;43514;-35
2023/07/20 12:37:36;;;;;;;3.10;1.60;;;;;;;;;;108235;1273;41124;-35
2023/07/20 12:40:12;;;;;;;3.20;1.70;;;;;;;;;;108215;1257;41477;-35
2023/07/20 12:42:46;;;;;;;2.80;1.50;;;;;;;;;;108191;1268;40510;-35
2023/07/20 12:45:20;;;;;;;3.30;1.70;;;;;;;;;;108250;1257;43391;-35
2023/07/20 12:47:53;;;;;;;3.90;1.80;;;;;;;;;;108234;1271;42308;-35
2023/07/20 12:50:28;;;;;;;3.60;1.90;;;;;;;;;;108201;1257;39901;-36
2023/07/20 12:53:03;;;;;;;3.90;2.10;;;;;;;;;;108250;1267;40284;-35
2023/07/20 12:55:40;;;;;;;3.20;1.80;;;;;;;;;;108207;1271;42252;-35
2023/07/20 12:58:14;;;;;;;4.10;2.10;;;;;;;;;;108268;1265;42466;-35
2023/07/20 13:00:49;;;;;;;3.50;2.10;;;;;;;;;;108176;1260;38724;-36
2023/07/20 13:03:23;;;;;;;4.50;2.20;;;;;;;;;;108171;1262;175439;-35
2023/07/20 13:06:00;;;;;;;3.50;2.00;;;;;;;;;;108273;1260;42220;-35
2023/07/20 13:08:37;;;;;;;4.80;2.20;;;;;;;;;;108278;1257;41209;-36
2023/07/20 13:11:11;;;;;;;3.80;2.00;;;;;;;;;;108236;1256;40127;-35
2023/07/20 13:13:45;;;;;;;4.40;2.20;;;;;;;;;;108267;1261;40448;-36
2023/07/20 13:16:20;;;;;;;3.70;1.90;;;;;;;;;;108280;1268;42373;-35
2023/07/20 13:18:54;;;;;;;3.50;2.00;;;;;;;;;;108225;1272;41072;-36
2023/07/20 13:21:29;;;;;;;3.50;2.00;;;;;;;;;;108231;1263;40058;-34
2023/07/20 13:24:04;;;;;;;3.50;2.00;;;;;;;;;;108328;1262;40216;-35
2023/07/20 13:26:38;;;;;;;3.50;1.90;;;;;;;;;;108352;1262;43241;-38
2023/07/20 13:29:11;;;;;;;3.60;2.00;;;;;;;;;;108311;1262;41421;-36
2023/07/20 13:31:46;;;;;;;3.70;2.10;;;;;;;;;;108259;1260;38902;-37
2023/07/20 13:34:22;;;;;;;3.40;2.10;;;;;;;;;;108257;1269;40447;-38
2023/07/20 13:36:58;;;;;;;4.00;2.20;;;;;;;;;;108276;1270;42037;-37
2023/07/20 13:39:32;;;;;;;4.30;2.30;;;;;;;;;;108309;1261;41060;-36
2023/07/20 13:42:09;;;;;;;4.00;2.30;;;;;;;;;;108235;1262;40530;-36
2023/07/20 13:44:44;;;;;;;4.10;2.50;;;;;;;;;;108287;1267;40120;-36
2023/07/20 13:47:18;;;;;;;4.30;2.50;;;;;;;;;;108334;1265;42277;-35
2023/07/20 13:49:55;;;;;;;3.30;2.00;;;;;;;;;;108304;1268;41643;-36
2023/07/20 13:52:33;;;;;;;4.30;2.30;;;;;;;;;;108180;1269;40208;-35
2023/07/20 13:55:11;;;;;;;4.10;2.20;;;;;;;;;;108206;1257;41316;-36
2023/07/20 13:57:45;;;;;;;4.40;2.50;;;;;;;;;;108304;1261;41939;-36
2023/07/20 14:00:20;;;;;;;3.90;2.50;;;;;;;;;;108258;1269;41158;-36
2023/07/20 14:02:57;;;;;;;4.10;2.60;;;;;;;;;;108261;1262;38832;-36
2023/07/20 14:05:34;;;;;;;3.50;2.20;;;;;;;;;;108278;1272;40413;-40
2023/07/20 14:08:11;;;;;;;4.60;2.80;;;;;;;;;;108290;1257;42244;-37
2023/07/20 14:10:45;;;;;;;3.60;2.20;;;;;;;;;;108314;1269;41293;-35
2023/07/20 14:13:23;;;;;;;5.00;2.20;;;;;;;;;;108246;1261;39004;-36
2023/07/20 14:16:10;;;;;;;3.70;2.30;;;;;;;;;;108100;1261;40212;-38
2023/07/20 14:18:47;;;;;;;4.00;2.60;;;;;;;;;;108278;1261;42260;-38
2023/07/20 14:21:23;;;;;;;3.90;2.40;;;;;;;;;;108227;1257;41151;-39
2023/07/20 14:23:58;;;;;;;3.90;2.50;;;;;;;;;;108278;1256;46013;-38
2023/07/20 14:26:35;;;;;;;3.70;2.10;;;;;;;;;;108327;1257;41416;-41
2023/07/20 14:29:09;;;;;;;3.50;2.00;;;;;;;;;;108271;1269;42328;-40
2023/07/20 14:31:43;;;;;;;4.10;1.90;;;;;;;;;;108199;1265;42435;-40
2023/07/20 14:34:19;;;;;;;3.30;1.60;;;;;;;;;;108238;1261;46167;-41
2023/07/20 14:36:53;;;;;;;3.10;1.60;;;;;;;;;;108305;1268;40348;-39
2023/07/20 14:39:26;;;;;;;3.70;2.00;;;;;;;;;;108291;1261;42369;-38
2023/07/20 14:42:01;;;;;;;3.50;1.90;;;;;;;;;;108220;1271;41294;-40
2023/07/20 14:44:36;;;;;;;3.40;1.90;;;;;;;;;;108269;1260;44970;-38
2023/07/20 14:47:11;;;;;;;3.40;1.80;;;;;;;;;;108317;1269;40173;-39
2023/07/20 14:49:48;;;;;;;3.80;1.60;;;;;;;;;;108274;1256;43138;-39
2023/07/20 14:52:22;;;;;;;3.70;1.70;;;;;;;;;;108205;1256;41043;-39
2023/07/20 14:55:01;;;;;;;3.40;1.80;;;;;;;;;;108245;1262;38687;-42
2023/07/20 14:57:35;;;;;;;3.60;1.80;;;;;;;;;;108255;1261;40501;-39
2023/07/20 15:00:12;;;;;;;3.30;1.80;;;;;;;;;;108206;1259;43238;-38
2023/07/20 15:02:47;;;;;;;4.00;1.80;;;;;;;;;;108276;1263;41132;-39
2023/07/20 15:05:27;;;;;;;3.60;1.90;;;;;;;;;;108227;1262;40480;-39
2023/07/20 15:08:01;;;;;;;4.10;1.70;;;;;;;;;;108294;1272;40237;-39
2023/07/20 15:10:35;;;;;;;3.30;1.40;;;;;;;;;;108254;1262;44878;-39
2023/07/20 15:13:09;;;;;;;3.30;1.40;;;;;;;;;;108257;1257;43496;-37
2023/07/20 15:15:44;;;;;;;3.10;1.50;;;;;;;;;;108283;1261;40185;-36
2023/07/20 15:18:18;;;;;;;2.50;1.40;;;;;;;;;;108288;1260;39963;-36
2023/07/20 15:21:00;;;;;;;3.00;1.40;;;;;;;;;;108235;1268;42127;-36
2023/07/20 15:23:34;;;;;;;2.90;1.40;;;;;;;;;;108234;1257;41236;-37